MapRunner: David Bowman - 24 runs; PB: 4:18 Pace; 700 Points
Event Name Event Date Distance (km) Pace (mins/km) OverallPosition AgeCatPosition Points
Colton Long PXAC 2020-12-14 7.8 4:40 -- -- --
Farsley PXAS ScoreV45 PZ23311220 2020-11-04 9.65 4:59 SM:3 M45-49:1 380 (incl - 40)
Baildon Long PZ2006092020 PXAC 2020-08-29 6.41 6:34 -- -- --
HarrogateEast PZ0422072020 PXAS ScoreV45 2020-07-22 6.45 4:27 SM:2 M45-49:1 600
Miles Hill Long PZ2128072020 PXAC 2020-07-21 7.45 5:43 -- -- --
KnaresboroughNE PZ0408072020 PXAS ScoreV45 2020-07-08 8.57 4:48 SM:2 M45-49:1 600
HarrogateColdBath PXAS ScoreV45 2020-07-01 9.8 4:30 SM:3 M45-49:1 480
Shipley Start Anywhere PXAS ScoreV60 2020-06-30 11.32 5:17 SM:2 M45-49:1 560
Oakwell Hall Long PZ PXAC 2020-06-28 6.98 5:39 -- -- --
HarrogateKnoxHill PZ0424062020 PXAS ScoreV45 2020-06-24 7.93 4:35 SM:2 M45-49:1 600
Holt Park Long PZ2130062020 PXAC 2020-06-19 5.94 4:57 -- -- --
Pannal PZ0417062020 PXAS ScoreV45 2020-06-17 6.62 4:34 SM:2 M45-49:1 600
Idle start anywhere PXAS ScoreV60 2020-06-12 10.88 5:28 SM:2 M45-49:1 520
HarrogateSW PZ0410062020 PXAS ScoreV45 2020-06-10 7.54 4:18 SM:2 M45-49:1 600
Ilkley Moor Perm start anywhere PXAS ScoreV180 2020-06-06 10.37 7:55 SM:5 M45-49:3 520
Headingley start anywhere PXAS ScoreV60 2020-06-05 12.41 4:59 SM:8 M45-49:1 500 (incl - 20)
Danefield Perm start anywhere PXAS ScoreV180 2020-06-05 6.47 7:05 SM:7 M45-49:2 340
KnaresboroughSE PZ0403062020 PXAS ScoreV45 2020-06-03 7.66 4:25 SM:2 M45-49:1 400
Rawdon start anywhere PXAS ScoreV60 2020-06-01 11.3 5:08 SM:2 M45-49:1 600
Menston HR start anywhere PXAS ScoreV60 2020-05-25 10.44 4:48 SM:4 M45-49:1 660
Burley start anywhere PXAS ScoreV60 2020-05-16 11.66 4:46 SM:7 M45-49:2 700
Bramhope start anywhere PXAS ScoreV60 2020-05-16 12.38 4:50 SM:2 M45-49:1 560
Cookridge start anywhere PXAS ScoreV60 2020-05-16 11.76 5:02 SM:2 M45-49:1 500
Harrogate1 PXAS 2020-03-22 10.93 4:48 -- -- --